Time;durP1;ratioP1;P1;durP2;ratioP2;P2;SDS_P1;SDS_P2;PMS_P1;PMS_P2;Temp;Humidity;BMP_temperature;BMP_pressure;BME280_temperature;BME280_humidity;BME280_pressure;Samples;Min_cycle;Max_cycle;Signal;HPM_P1;HPM_P2
2022/06/23 00:00:57;;;;;;;9.63;4.60;;;;;;;;;;5050936;28;20514;-74
2022/06/23 00:03:23;;;;;;;11.10;4.78;;;;;;;;;;5033791;28;20496;-74
2022/06/23 00:05:53;;;;;;;6.93;4.80;;;;;;;;;;5052137;28;20115;-74
2022/06/23 00:08:19;;;;;;;7.88;4.88;;;;;;;;;;5050159;28;20095;-74
2022/06/23 00:10:56;;;;;;;9.48;4.80;;;;;;;;;;5050391;28;20468;-74
2022/06/23 00:13:25;;;;;;;9.30;5.18;;;;;;;;;;5049885;28;20041;-74
2022/06/23 00:15:52;;;;;;;7.20;4.85;;;;;;;;;;5050791;28;20497;-74
2022/06/23 00:18:18;;;;;;;10.38;4.45;;;;;;;;;;5051234;28;20041;-74
2022/06/23 00:20:53;;;;;;;8.82;5.13;;;;;;;;;;5020875;28;20384;-74
2022/06/23 00:23:34;;;;;;;5.75;4.07;;;;;;;;;;5050258;28;20516;-74
2022/06/23 00:26:08;;;;;;;7.82;4.68;;;;;;;;;;5038722;28;20424;-73
2022/06/23 00:28:36;;;;;;;7.05;4.70;;;;;;;;;;5049784;28;20049;-73
2022/06/23 00:31:06;;;;;;;8.32;5.13;;;;;;;;;;5033354;28;20048;-74
2022/06/23 00:33:42;;;;;;;8.98;5.30;;;;;;;;;;5049954;28;20124;-74
2022/06/23 00:36:08;;;;;;;;;;;;;;;;;;5018612;28;20497;-74
2022/06/23 00:38:38;;;;;;;9.65;5.35;;;;;;;;;;5043614;28;19943;-74
2022/06/23 00:41:05;;;;;;;6.85;4.63;;;;;;;;;;5049920;28;20090;-74
2022/06/23 00:43:32;;;;;;;8.50;5.38;;;;;;;;;;5050748;28;20089;-74
2022/06/23 00:46:09;;;;;;;8.88;5.38;;;;;;;;;;5051251;28;20406;-74
2022/06/23 00:48:38;;;;;;;8.73;5.45;;;;;;;;;;5050249;28;20460;-73
2022/06/23 00:51:05;;;;;;;10.27;6.30;;;;;;;;;;5050415;28;20069;-74
2022/06/23 00:53:38;;;;;;;9.82;5.22;;;;;;;;;;5049846;28;20032;-75
2022/06/23 00:56:23;;;;;;;9.93;6.00;;;;;;;;;;5050023;28;20429;-72
2022/06/23 00:58:58;;;;;;;8.73;5.47;;;;;;;;;;5038199;28;20047;-73
2022/06/23 01:01:31;;;;;;;8.70;5.07;;;;;;;;;;5049449;28;20620;-73
2022/06/23 01:04:17;;;;;;;8.48;5.18;;;;;;;;;;5051226;28;20049;-73
2022/06/23 01:06:43;;;;;;;;;;;;;;;;;;5049654;28;20093;-73
2022/06/23 01:09:16;;;;;;;8.95;4.90;;;;;;;;;;5049556;28;20386;-73
2022/06/23 01:11:44;;;;;;;7.35;4.63;;;;;;;;;;5048888;28;20083;-72
2022/06/23 01:14:10;;;;;;;8.32;5.80;;;;;;;;;;5049972;28;20387;-73
2022/06/23 01:16:45;;;;;;;9.50;4.88;;;;;;;;;;5049277;28;20119;-73
2022/06/23 01:19:23;;;;;;;8.02;4.88;;;;;;;;;;5034480;28;20068;-73
2022/06/23 01:21:53;;;;;;;7.82;4.93;;;;;;;;;;5054153;28;20044;-74
2022/06/23 01:24:31;;;;;;;10.48;5.10;;;;;;;;;;5054041;28;20520;-73
2022/06/23 01:27:15;;;;;;;7.57;5.25;;;;;;;;;;5036948;28;20072;-74
2022/06/23 01:29:44;;;;;;;8.25;4.65;;;;;;;;;;5052891;28;20131;-73
2022/06/23 01:32:42;;;;;;;8.35;5.22;;;;;;;;;;5054557;28;20045;-74
2022/06/23 01:35:12;;;;;;;8.40;5.18;;;;;;;;;;5031821;28;20051;-73
2022/06/23 01:37:45;;;;;;;7.88;5.40;;;;;;;;;;5052803;28;20089;-74
2022/06/23 01:40:21;;;;;;;10.60;5.82;;;;;;;;;;5036700;28;20055;-74
2022/06/23 01:42:47;;;;;;;12.45;5.88;;;;;;;;;;5054495;28;20076;-73
2022/06/23 01:45:23;;;;;;;10.10;6.05;;;;;;;;;;5053731;28;20513;-74
2022/06/23 01:47:49;;;;;;;;;;;;;;;;;;5053179;28;20362;-74
2022/06/23 01:50:15;;;;;;;9.00;5.28;;;;;;;;;;5053033;28;19928;-74
2022/06/23 01:52:42;;;;;;;9.05;5.70;;;;;;;;;;5052758;28;20052;-74
2022/06/23 01:55:35;;;;;;;9.68;5.28;;;;;;;;;;5054449;28;20087;-73
2022/06/23 01:58:03;;;;;;;8.98;5.80;;;;;;;;;;5050785;28;20079;-73
2022/06/23 02:00:30;;;;;;;10.32;5.90;;;;;;;;;;5053332;28;20049;-74
2022/06/23 02:02:59;;;;;;;10.40;5.05;;;;;;;;;;5045803;28;20099;-73
2022/06/23 02:05:41;;;;;;;8.70;5.30;;;;;;;;;;5052015;28;20040;-73
2022/06/23 02:08:26;;;;;;;10.30;5.45;;;;;;;;;;5052643;28;20388;-73
2022/06/23 02:10:58;;;;;;;8.65;5.55;;;;;;;;;;5052715;28;20048;-73
2022/06/23 02:13:29;;;;;;;9.00;6.20;;;;;;;;;;5052548;28;20187;-73
2022/06/23 02:15:55;;;;;;;14.88;5.85;;;;;;;;;;5052532;28;20489;-73
2022/06/23 02:18:26;;;;;;;11.35;6.40;;;;;;;;;;5052483;28;20183;-73
2022/06/23 02:20:58;;;;;;;10.18;6.03;;;;;;;;;;5052783;28;20563;-73
2022/06/23 02:23:43;;;;;;;8.68;6.15;;;;;;;;;;5052732;28;20107;-73
2022/06/23 02:26:21;;;;;;;9.90;6.10;;;;;;;;;;5052493;28;20045;-74
2022/06/23 02:28:56;;;;;;;10.95;6.22;;;;;;;;;;5051747;28;20040;-74
2022/06/23 02:31:27;;;;;;;12.60;6.85;;;;;;;;;;5051477;28;20041;-74
2022/06/23 02:33:57;;;;;;;12.63;6.82;;;;;;;;;;5051709;28;20048;-74
2022/06/23 02:36:52;;;;;;;10.27;5.97;;;;;;;;;;5052551;28;20048;-74
2022/06/23 02:39:21;;;;;;;11.00;6.82;;;;;;;;;;5098047;28;20071;-74
2022/06/23 02:41:50;;;;;;;10.80;6.43;;;;;;;;;;5072142;28;20040;-74
2022/06/23 02:44:27;;;;;;;13.25;7.22;;;;;;;;;;5073389;28;20090;-74
2022/06/23 02:47:09;;;;;;;11.82;6.30;;;;;;;;;;5072068;28;20079;-74
2022/06/23 02:49:43;;;;;;;11.07;6.47;;;;;;;;;;5073022;28;20381;-74
2022/06/23 02:52:15;;;;;;;11.95;7.18;;;;;;;;;;5072398;28;20079;-74
2022/06/23 02:54:47;;;;;;;12.75;7.13;;;;;;;;;;5071336;28;20045;-74
2022/06/23 02:57:19;;;;;;;13.93;7.30;;;;;;;;;;5055574;28;20125;-74
2022/06/23 02:59:51;;;;;;;10.38;6.78;;;;;;;;;;5055022;28;20044;-74
2022/06/23 03:02:17;;;;;;;11.95;7.10;;;;;;;;;;5073158;28;20044;-74
2022/06/23 03:04:46;;;;;;;11.18;6.90;;;;;;;;;;5071276;28;20063;-74
2022/06/23 03:07:18;;;;;;;10.95;6.10;;;;;;;;;;5073716;28;20040;-74
2022/06/23 03:09:48;;;;;;;11.23;7.07;;;;;;;;;;5071626;28;20525;-74
2022/06/23 03:12:27;;;;;;;11.05;6.90;;;;;;;;;;5071486;28;20044;-74
2022/06/23 03:15:01;;;;;;;10.23;6.40;;;;;;;;;;5071229;28;20049;-74
2022/06/23 03:17:37;;;;;;;16.65;8.40;;;;;;;;;;5072033;28;20040;-73
2022/06/23 03:20:10;;;;;;;15.52;7.93;;;;;;;;;;5054935;28;20051;-74
2022/06/23 03:22:55;;;;;;;12.38;7.20;;;;;;;;;;5071812;28;20503;-73
2022/06/23 03:25:39;;;;;;;14.40;7.47;;;;;;;;;;5071623;28;20963;-74
2022/06/23 03:28:13;;;;;;;15.23;7.57;;;;;;;;;;5071532;28;20043;-74
2022/06/23 03:30:41;;;;;;;12.40;6.57;;;;;;;;;;5060871;28;20089;-73
2022/06/23 03:33:11;;;;;;;14.32;7.68;;;;;;;;;;5071338;28;20032;-74
2022/06/23 03:35:42;;;;;;;9.50;6.25;;;;;;;;;;5071372;28;20040;-74
2022/06/23 03:41:36;;;;;;;11.98;7.72;;;;;;;;;;5071552;28;20125;-74
2022/06/23 03:41:36;;;;;;;15.20;7.93;;;;;;;;;;5073314;28;20128;-74
2022/06/23 03:44:06;;;;;;;12.38;7.30;;;;;;;;;;5070440;28;20123;-74
2022/06/23 03:46:35;;;;;;;14.65;7.30;;;;;;;;;;5071254;28;20044;-74
2022/06/23 03:49:08;;;;;;;11.98;6.95;;;;;;;;;;5071746;28;20099;-74
2022/06/23 03:51:36;;;;;;;11.88;7.53;;;;;;;;;;5071310;28;20117;-74
2022/06/23 03:54:17;;;;;;;10.48;6.60;;;;;;;;;;5070459;28;20048;-74
2022/06/23 03:56:52;;;;;;;8.18;5.97;;;;;;;;;;5070711;28;20078;-74
2022/06/23 03:59:25;;;;;;;10.73;7.10;;;;;;;;;;5070734;28;20051;-74
2022/06/23 04:01:54;;;;;;;10.40;6.57;;;;;;;;;;5056993;28;20071;-74
2022/06/23 04:04:25;;;;;;;12.25;7.15;;;;;;;;;;5050165;28;20049;-74
2022/06/23 04:06:52;;;;;;;10.25;6.47;;;;;;;;;;5049935;28;20374;-74
2022/06/23 04:09:32;;;;;;;9.88;7.00;;;;;;;;;;5050534;28;20048;-74
2022/06/23 04:12:03;;;;;;;11.50;7.10;;;;;;;;;;5050355;28;20036;-74
2022/06/23 04:14:29;;;;;;;11.80;6.60;;;;;;;;;;5033417;28;20041;-74
2022/06/23 04:17:05;;;;;;;9.07;6.40;;;;;;;;;;5049905;28;20038;-74
2022/06/23 04:19:32;;;;;;;11.43;6.07;;;;;;;;;;5050947;28;20473;-75
2022/06/23 04:22:06;;;;;;;10.02;6.28;;;;;;;;;;5050228;28;20041;-74
2022/06/23 04:24:32;;;;;;;9.60;6.20;;;;;;;;;;5050410;28;20154;-74
2022/06/23 04:27:05;;;;;;;9.20;5.60;;;;;;;;;;5033199;28;20094;-74
2022/06/23 04:29:36;;;;;;;8.05;5.55;;;;;;;;;;5051666;28;20041;-74
2022/06/23 04:32:02;;;;;;;9.75;5.55;;;;;;;;;;5022860;28;20120;-74
2022/06/23 04:34:30;;;;;;;7.97;5.30;;;;;;;;;;5049983;28;20120;-74
2022/06/23 04:36:56;;;;;;;9.77;5.82;;;;;;;;;;5049489;28;20132;-74
2022/06/23 04:39:26;;;;;;;9.45;5.68;;;;;;;;;;5050121;28;20087;-74
2022/06/23 04:42:00;;;;;;;8.75;5.30;;;;;;;;;;5033189;28;20106;-74
2022/06/23 04:44:30;;;;;;;8.25;5.53;;;;;;;;;;5039783;28;20040;-75
2022/06/23 04:47:06;;;;;;;7.75;5.75;;;;;;;;;;5061794;28;20084;-74
2022/06/23 04:49:48;;;;;;;8.38;5.32;;;;;;;;;;5069969;28;20041;-74
2022/06/23 04:52:35;;;;;;;6.97;4.78;;;;;;;;;;5053513;28;20045;-75
2022/06/23 04:55:07;;;;;;;9.10;5.80;;;;;;;;;;5046426;28;20044;-75
2022/06/23 04:57:33;;;;;;;8.63;5.80;;;;;;;;;;5053269;28;20036;-75
2022/06/23 05:00:01;;;;;;;8.70;5.25;;;;;;;;;;5069593;28;20105;-74
2022/06/23 05:02:31;;;;;;;8.15;5.38;;;;;;;;;;5069958;28;20084;-75
2022/06/23 05:05:02;;;;;;;8.23;5.55;;;;;;;;;;5069208;28;20048;-75
2022/06/23 05:07:34;;;;;;;9.05;5.38;;;;;;;;;;5069926;28;20109;-75
2022/06/23 05:10:01;;;;;;;9.40;5.78;;;;;;;;;;5069558;28;20045;-75
2022/06/23 05:12:34;;;;;;;8.77;5.88;;;;;;;;;;5070220;28;20485;-75
2022/06/23 05:15:12;;;;;;;8.55;5.25;;;;;;;;;;5070205;28;20085;-75
2022/06/23 05:17:42;;;;;;;9.10;5.68;;;;;;;;;;5070042;28;20043;-77
2022/06/23 05:20:08;;;;;;;8.02;5.20;;;;;;;;;;5052648;28;20127;-75
2022/06/23 05:22:39;;;;;;;7.78;5.80;;;;;;;;;;5103587;28;20044;-75
2022/06/23 05:25:28;;;;;;;8.50;5.82;;;;;;;;;;5070546;28;20037;-74
2022/06/23 05:27:54;;;;;;;8.20;5.72;;;;;;;;;;5052942;28;20044;-75
2022/06/23 05:30:28;;;;;;;7.15;5.30;;;;;;;;;;5062252;28;20064;-75
2022/06/23 05:33:15;;;;;;;10.60;5.70;;;;;;;;;;5069660;28;20497;-75
2022/06/23 05:35:43;;;;;;;9.27;5.80;;;;;;;;;;5070734;28;20040;-75
2022/06/23 05:38:22;;;;;;;6.75;5.30;;;;;;;;;;5069852;28;20523;-75
2022/06/23 05:40:50;;;;;;;8.13;5.75;;;;;;;;;;5069561;28;20076;-75
2022/06/23 05:43:16;;;;;;;8.25;5.50;;;;;;;;;;5068878;28;20063;-76
2022/06/23 05:45:45;;;;;;;7.20;4.90;;;;;;;;;;5069302;28;20062;-75
2022/06/23 05:48:13;;;;;;;7.47;5.40;;;;;;;;;;5052594;28;20080;-75
2022/06/23 05:50:47;;;;;;;9.30;5.57;;;;;;;;;;5069086;28;20123;-75
2022/06/23 05:53:20;;;;;;;8.05;5.63;;;;;;;;;;5068891;28;20117;-75
2022/06/23 05:55:52;;;;;;;9.30;5.80;;;;;;;;;;5069347;28;20072;-75
2022/06/23 05:58:24;;;;;;;8.43;5.78;;;;;;;;;;5052469;28;20044;-75
2022/06/23 06:01:24;;;;;;;7.35;5.63;;;;;;;;;;5069482;28;20044;-75
2022/06/23 06:04:04;;;;;;;9.60;5.60;;;;;;;;;;5047715;28;20071;-74
2022/06/23 06:06:32;;;;;;;6.38;5.30;;;;;;;;;;5072569;28;20051;-75
2022/06/23 06:11:52;;;;;;;8.23;5.25;;;;;;;;;;5072899;28;20146;-76
2022/06/23 06:14:20;;;;;;;7.82;5.95;;;;;;;;;;5074011;28;20040;-76
2022/06/23 06:16:46;;;;;;;8.13;5.68;;;;;;;;;;5058738;28;20040;-77
2022/06/23 06:19:14;;;;;;;6.55;5.00;;;;;;;;;;5072313;28;20045;-75
2022/06/23 06:21:40;;;;;;;8.43;5.45;;;;;;;;;;5072521;28;20072;-75
2022/06/23 06:24:10;;;;;;;8.80;5.60;;;;;;;;;;5073620;28;20133;-75
2022/06/23 06:26:39;;;;;;;6.85;5.00;;;;;;;;;;5073156;28;20488;-76
2022/06/23 06:29:17;;;;;;;7.70;5.38;;;;;;;;;;5070896;28;20040;-75
2022/06/23 06:31:52;;;;;;;5.55;4.93;;;;;;;;;;5069239;28;20036;-76
2022/06/23 06:34:23;;;;;;;5.90;4.40;;;;;;;;;;5055788;28;20118;-75
2022/06/23 06:36:51;;;;;;;7.82;5.07;;;;;;;;;;5073713;28;20068;-75
2022/06/23 06:39:18;;;;;;;6.05;4.30;;;;;;;;;;5072166;28;20438;-75
2022/06/23 06:41:46;;;;;;;7.90;4.78;;;;;;;;;;5072039;28;20052;-75
2022/06/23 06:44:13;;;;;;;7.30;4.70;;;;;;;;;;5072397;28;20397;-76
2022/06/23 06:46:40;;;;;;;6.95;4.95;;;;;;;;;;5072096;28;20045;-75
2022/06/23 06:49:07;;;;;;;7.13;5.00;;;;;;;;;;5071480;28;20047;-76
2022/06/23 06:51:33;;;;;;;7.13;4.45;;;;;;;;;;5072020;28;20134;-76
2022/06/23 06:54:08;;;;;;;7.85;3.80;;;;;;;;;;5074842;28;20037;-76
2022/06/23 06:56:43;;;;;;;5.70;4.35;;;;;;;;;;5072440;28;20401;-76
2022/06/23 06:59:16;;;;;;;6.82;4.32;;;;;;;;;;5055072;28;20556;-76
2022/06/23 07:01:43;;;;;;;8.77;4.78;;;;;;;;;;5072063;28;20404;-76
2022/06/23 07:04:14;;;;;;;6.95;4.25;;;;;;;;;;5054894;28;20519;-76
2022/06/23 07:06:42;;;;;;;6.32;4.32;;;;;;;;;;5071873;28;20044;-76
2022/06/23 07:09:21;;;;;;;6.93;4.43;;;;;;;;;;5071418;28;20036;-76
2022/06/23 07:11:56;;;;;;;6.63;4.10;;;;;;;;;;5054880;28;20058;-76
2022/06/23 07:14:31;;;;;;;5.90;4.00;;;;;;;;;;5071337;28;20044;-76
2022/06/23 07:16:57;;;;;;;;;;;;;;;;;;5071915;28;20423;-76
2022/06/23 07:19:29;;;;;;;6.53;4.05;;;;;;;;;;5071308;28;19963;-75
2022/06/23 07:21:55;;;;;;;6.28;3.92;;;;;;;;;;5044280;28;20137;-75
2022/06/23 07:24:25;;;;;;;5.78;4.13;;;;;;;;;;5070998;28;20048;-75
2022/06/23 07:26:58;;;;;;;6.15;4.28;;;;;;;;;;5072695;28;20036;-75
2022/06/23 07:29:41;;;;;;;7.35;3.90;;;;;;;;;;5066087;28;20116;-75
2022/06/23 07:32:07;;;;;;;6.10;3.45;;;;;;;;;;5076877;28;20088;-75
2022/06/23 07:34:37;;;;;;;6.53;4.00;;;;;;;;;;5105562;28;20451;-75
2022/06/23 07:37:10;;;;;;;4.95;3.88;;;;;;;;;;5071035;28;20039;-75
2022/06/23 07:39:37;;;;;;;7.18;3.20;;;;;;;;;;5071266;28;20057;-75
2022/06/23 07:42:13;;;;;;;7.28;3.80;;;;;;;;;;5070777;28;20470;-75
2022/06/23 07:44:46;;;;;;;6.45;3.60;;;;;;;;;;5071235;28;20042;-75
2022/06/23 07:47:12;;;;;;;5.53;3.60;;;;;;;;;;5104293;28;20127;-75
2022/06/23 07:49:38;;;;;;;4.65;3.33;;;;;;;;;;5037627;28;20082;-75
2022/06/23 07:52:05;;;;;;;6.70;3.50;;;;;;;;;;5070852;28;20044;-75
2022/06/23 07:54:31;;;;;;;4.90;3.35;;;;;;;;;;5054163;28;20481;-75
2022/06/23 07:56:58;;;;;;;6.95;3.65;;;;;;;;;;5054171;28;20082;-75
2022/06/23 07:59:26;;;;;;;4.07;3.00;;;;;;;;;;5053814;28;20048;-75
2022/06/23 08:02:02;;;;;;;6.82;3.70;;;;;;;;;;5072091;28;20044;-75
2022/06/23 08:04:28;;;;;;;5.80;3.28;;;;;;;;;;5053381;28;20040;-75
2022/06/23 08:06:57;;;;;;;6.20;3.30;;;;;;;;;;5054042;28;20039;-75
2022/06/23 08:09:26;;;;;;;7.95;3.42;;;;;;;;;;5071553;28;20488;-75
2022/06/23 08:14:40;;;;;;;6.00;3.40;;;;;;;;;;5070404;28;20044;-75
2022/06/23 08:17:08;;;;;;;5.80;2.97;;;;;;;;;;5071739;28;20580;-75
2022/06/23 08:19:34;;;;;;;5.55;3.20;;;;;;;;;;5070198;28;20370;-75
2022/06/23 08:22:19;;;;;;;5.55;3.28;;;;;;;;;;5070354;28;20236;-75
2022/06/23 08:24:48;;;;;;;6.35;3.25;;;;;;;;;;5068545;28;20045;-75
2022/06/23 08:27:18;;;;;;;4.95;3.28;;;;;;;;;;5058175;28;20045;-75
2022/06/23 08:29:44;;;;;;;10.50;3.10;;;;;;;;;;5062808;28;20072;-75
2022/06/23 08:32:10;;;;;;;6.07;3.20;;;;;;;;;;5070250;28;20393;-75
2022/06/23 08:34:38;;;;;;;5.75;3.78;;;;;;;;;;5070172;28;20481;-75
2022/06/23 08:37:07;;;;;;;7.40;2.95;;;;;;;;;;5065243;28;20060;-75
2022/06/23 08:39:45;;;;;;;6.78;3.08;;;;;;;;;;5061408;28;20048;-75
2022/06/23 08:42:38;;;;;;;4.50;3.15;;;;;;;;;;5069773;28;20068;-75
2022/06/23 08:45:22;;;;;;;4.43;3.00;;;;;;;;;;5067965;28;20087;-75
2022/06/23 08:47:56;;;;;;;3.58;2.35;;;;;;;;;;5070235;28;20039;-75
2022/06/23 08:50:22;;;;;;;4.50;2.60;;;;;;;;;;5069190;28;20056;-75
2022/06/23 08:52:56;;;;;;;4.53;2.75;;;;;;;;;;5069582;28;20135;-75
2022/06/23 08:55:26;;;;;;;8.05;3.00;;;;;;;;;;5053005;28;20040;-75
2022/06/23 08:57:56;;;;;;;6.60;3.15;;;;;;;;;;5070143;28;20048;-75
2022/06/23 09:00:27;;;;;;;5.30;3.35;;;;;;;;;;5069485;28;20048;-75
2022/06/23 09:03:12;;;;;;;6.55;3.10;;;;;;;;;;5069999;28;20048;-75
2022/06/23 09:05:53;;;;;;;5.50;2.50;;;;;;;;;;5069541;28;20532;-75
2022/06/23 09:08:37;;;;;;;5.57;3.10;;;;;;;;;;5070448;28;20044;-75
2022/06/23 09:11:23;;;;;;;5.18;2.72;;;;;;;;;;5071095;28;20139;-75
2022/06/23 09:14:08;;;;;;;3.28;2.20;;;;;;;;;;5070250;28;20032;-75
2022/06/23 09:16:37;;;;;;;3.70;2.50;;;;;;;;;;5069206;28;20086;-75
2022/06/23 09:19:06;;;;;;;7.63;3.10;;;;;;;;;;5069737;28;20037;-75
2022/06/23 09:21:51;;;;;;;5.78;2.28;;;;;;;;;;5069315;28;20039;-75
2022/06/23 09:24:33;;;;;;;5.38;3.00;;;;;;;;;;5069243;28;20036;-75
2022/06/23 09:27:23;;;;;;;4.75;3.08;;;;;;;;;;5069483;28;20052;-75
2022/06/23 09:29:55;;;;;;;3.78;2.50;;;;;;;;;;5062188;28;20409;-75
2022/06/23 09:32:34;;;;;;;5.45;2.40;;;;;;;;;;5069381;28;20055;-75
2022/06/23 09:35:00;;;;;;;3.88;2.30;;;;;;;;;;5069537;28;20080;-75
2022/06/23 09:37:46;;;;;;;4.40;2.45;;;;;;;;;;5070196;28;20088;-75
2022/06/23 09:40:15;;;;;;;5.20;2.38;;;;;;;;;;5053612;28;20060;-75
2022/06/23 09:42:50;;;;;;;5.75;2.40;;;;;;;;;;5072939;28;20044;-75
2022/06/23 09:45:16;;;;;;;;;;;;;;;;;;5073628;28;20045;-75
2022/06/23 09:47:57;;;;;;;4.32;2.33;;;;;;;;;;5073022;28;20330;-75
2022/06/23 09:50:32;;;;;;;6.72;2.40;;;;;;;;;;5106411;28;20060;-75
2022/06/23 09:53:17;;;;;;;5.50;2.50;;;;;;;;;;5073002;28;20115;-75
2022/06/23 09:56:06;;;;;;;4.15;2.58;;;;;;;;;;5072959;28;20036;-76
2022/06/23 09:58:51;;;;;;;3.97;2.47;;;;;;;;;;5072618;28;20036;-75
2022/06/23 10:01:20;;;;;;;3.92;2.30;;;;;;;;;;5073138;28;20070;-75
2022/06/23 10:03:46;;;;;;;7.03;3.10;;;;;;;;;;5073458;28;20503;-75
2022/06/23 10:06:21;;;;;;;4.45;2.50;;;;;;;;;;5072867;28;20037;-75
2022/06/23 10:08:47;;;;;;;5.28;2.45;;;;;;;;;;5072548;28;20040;-75
2022/06/23 10:11:16;;;;;;;3.38;2.60;;;;;;;;;;5072603;28;20545;-76
2022/06/23 10:13:46;;;;;;;4.10;2.22;;;;;;;;;;5072731;28;20044;-77
2022/06/23 10:16:15;;;;;;;4.95;2.55;;;;;;;;;;5056163;28;20122;-74
2022/06/23 10:18:41;;;;;;;5.22;2.55;;;;;;;;;;5072140;28;20115;-75
2022/06/23 10:21:21;;;;;;;6.38;2.72;;;;;;;;;;5072531;28;20136;-75
2022/06/23 10:23:47;;;;;;;5.65;2.55;;;;;;;;;;5048257;28;20044;-75
2022/06/23 10:26:27;;;;;;;5.93;2.90;;;;;;;;;;5072813;28;20041;-75
2022/06/23 10:29:06;;;;;;;4.18;2.50;;;;;;;;;;5046853;28;20067;-75
2022/06/23 10:31:59;;;;;;;5.45;3.00;;;;;;;;;;5067525;28;20098;-74
2022/06/23 10:34:44;;;;;;;6.35;2.80;;;;;;;;;;5072225;28;20043;-75
2022/06/23 10:37:19;;;;;;;6.18;2.67;;;;;;;;;;5072114;28;20032;-75
2022/06/23 10:39:45;;;;;;;4.55;3.05;;;;;;;;;;5071919;28;20107;-75
2022/06/23 10:42:19;;;;;;;5.50;3.53;;;;;;;;;;5072260;28;20134;-75
2022/06/23 10:44:51;;;;;;;5.80;2.85;;;;;;;;;;5071824;28;20102;-75
2022/06/23 10:47:17;;;;;;;7.22;3.03;;;;;;;;;;5071838;28;20055;-75
2022/06/23 10:49:55;;;;;;;4.22;2.80;;;;;;;;;;5054612;28;20455;-74
2022/06/23 10:52:39;;;;;;;6.25;3.40;;;;;;;;;;5054285;28;20048;-74
2022/06/23 10:55:30;;;;;;;6.18;3.30;;;;;;;;;;5073192;28;20131;-75
2022/06/23 10:58:08;;;;;;;6.05;3.10;;;;;;;;;;5072183;28;20040;-75
2022/06/23 11:00:37;;;;;;;6.53;3.00;;;;;;;;;;5073299;28;20453;-75
2022/06/23 11:03:19;;;;;;;6.65;3.17;;;;;;;;;;5071901;28;20551;-75
2022/06/23 11:05:45;;;;;;;7.03;3.20;;;;;;;;;;5054639;28;20067;-74
2022/06/23 11:08:29;;;;;;;7.05;2.72;;;;;;;;;;5071720;28;20040;-75
2022/06/23 11:11:14;;;;;;;5.38;3.03;;;;;;;;;;5073261;28;20045;-75
2022/06/23 11:14:02;;;;;;;4.90;3.20;;;;;;;;;;5031556;28;20099;-75
2022/06/23 11:16:44;;;;;;;7.15;2.95;;;;;;;;;;5071629;28;20044;-75
2022/06/23 11:19:20;;;;;;;5.22;2.90;;;;;;;;;;5073043;28;20468;-75
2022/06/23 11:21:57;;;;;;;5.40;3.00;;;;;;;;;;5054545;28;20317;-74
2022/06/23 11:24:42;;;;;;;5.97;2.92;;;;;;;;;;5071672;28;20072;-74
2022/06/23 11:27:40;;;;;;;4.95;3.10;;;;;;;;;;5046254;28;20051;-75
2022/06/23 11:30:22;;;;;;;6.65;3.40;;;;;;;;;;5025276;28;20063;-75
2022/06/23 11:33:07;;;;;;;6.70;3.03;;;;;;;;;;5054517;28;20045;-75
2022/06/23 11:35:52;;;;;;;6.97;3.10;;;;;;;;;;5044039;28;20067;-75
2022/06/23 11:38:24;;;;;;;6.57;3.65;;;;;;;;;;5105625;28;20082;-75
2022/06/23 11:41:00;;;;;;;7.45;3.30;;;;;;;;;;5054813;28;20042;-73
2022/06/23 11:43:35;;;;;;;5.05;3.00;;;;;;;;;;5072369;28;20048;-74
2022/06/23 11:46:17;;;;;;;5.13;2.92;;;;;;;;;;5054445;28;20037;-74
2022/06/23 11:49:02;;;;;;;5.15;3.30;;;;;;;;;;5071959;28;20041;-74
2022/06/23 11:51:46;;;;;;;5.13;3.03;;;;;;;;;;5046073;28;20064;-74
2022/06/23 11:54:12;;;;;;;5.13;3.03;;;;;;;;;;5070800;28;20131;-74
2022/06/23 11:56:50;;;;;;;6.15;2.97;;;;;;;;;;5053977;28;20072;-74
2022/06/23 11:59:24;;;;;;;5.88;2.85;;;;;;;;;;5070488;28;20048;-74
2022/06/23 12:01:51;;;;;;;6.87;2.70;;;;;;;;;;5070202;28;20036;-75
2022/06/23 12:04:40;;;;;;;5.68;2.97;;;;;;;;;;5071798;28;20146;-74
2022/06/23 12:07:09;;;;;;;5.72;2.92;;;;;;;;;;5070793;28;20036;-75
2022/06/23 12:09:41;;;;;;;5.82;3.10;;;;;;;;;;5069697;28;20094;-74
2022/06/23 12:12:07;;;;;;;6.68;2.97;;;;;;;;;;5070417;28;20120;-74
2022/06/23 12:14:34;;;;;;;4.63;2.65;;;;;;;;;;5070611;28;20036;-74
2022/06/23 12:17:11;;;;;;;5.75;2.92;;;;;;;;;;5070841;28;20493;-74
2022/06/23 12:19:42;;;;;;;5.85;2.90;;;;;;;;;;5069769;28;20127;-74
2022/06/23 12:22:13;;;;;;;7.97;2.83;;;;;;;;;;5053973;28;20543;-75
2022/06/23 12:24:43;;;;;;;3.60;2.60;;;;;;;;;;5069761;28;20048;-74
2022/06/23 12:27:27;;;;;;;6.15;2.72;;;;;;;;;;5070468;28;20041;-75
2022/06/23 12:29:58;;;;;;;5.00;2.72;;;;;;;;;;5060243;28;20045;-75
2022/06/23 12:32:31;;;;;;;4.88;2.60;;;;;;;;;;5092643;28;20041;-75
2022/06/23 12:35:10;;;;;;;4.88;2.60;;;;;;;;;;5053116;28;20098;-75
2022/06/23 12:37:53;;;;;;;5.32;2.70;;;;;;;;;;5069989;28;20036;-74
2022/06/23 12:40:55;;;;;;;3.67;2.38;;;;;;;;;;5053661;28;20051;-74
2022/06/23 12:43:31;;;;;;;8.18;2.60;;;;;;;;;;5032183;28;20190;-74
2022/06/23 12:46:00;;;;;;;5.28;2.72;;;;;;;;;;5063994;28;20065;-74
2022/06/23 12:48:29;;;;;;;6.68;2.60;;;;;;;;;;5053760;28;20487;-74
2022/06/23 12:51:04;;;;;;;5.95;2.70;;;;;;;;;;5052789;28;20052;-74
2022/06/23 12:53:48;;;;;;;4.15;2.53;;;;;;;;;;5069910;28;20045;-74
2022/06/23 12:56:35;;;;;;;5.78;2.55;;;;;;;;;;5069653;28;20041;-75
2022/06/23 12:59:15;;;;;;;7.20;2.65;;;;;;;;;;5056013;28;20410;-75
2022/06/23 13:01:41;;;;;;;7.65;2.70;;;;;;;;;;5045089;28;20037;-74
2022/06/23 13:04:13;;;;;;;5.93;2.80;;;;;;;;;;5069758;28;20059;-74
2022/06/23 13:06:51;;;;;;;4.80;2.63;;;;;;;;;;5026959;28;20032;-74
2022/06/23 13:09:37;;;;;;;10.70;2.70;;;;;;;;;;5070023;28;20508;-75
2022/06/23 13:12:13;;;;;;;4.65;2.75;;;;;;;;;;5069247;28;20079;-74
2022/06/23 13:14:42;;;;;;;8.35;2.60;;;;;;;;;;5069471;28;20504;-75
2022/06/23 13:17:38;;;;;;;5.88;2.80;;;;;;;;;;5069948;28;20044;-74
2022/06/23 13:20:23;;;;;;;3.33;2.47;;;;;;;;;;5065408;28;20053;-74
2022/06/23 13:22:56;;;;;;;5.57;2.95;;;;;;;;;;5069542;28;20084;-74
2022/06/23 13:25:24;;;;;;;5.90;2.70;;;;;;;;;;5043531;28;20044;-73
2022/06/23 13:27:52;;;;;;;6.43;2.75;;;;;;;;;;5056230;28;20119;-74
2022/06/23 13:30:20;;;;;;;6.97;3.00;;;;;;;;;;5062728;28;20079;-74
2022/06/23 13:32:52;;;;;;;4.93;2.90;;;;;;;;;;5069500;28;20045;-74
2022/06/23 13:35:18;;;;;;;6.07;3.10;;;;;;;;;;5069958;28;20043;-75
2022/06/23 13:37:44;;;;;;;6.30;2.80;;;;;;;;;;5069799;28;20040;-74
2022/06/23 13:40:29;;;;;;;4.65;2.90;;;;;;;;;;5070595;28;20501;-74
2022/06/23 13:43:10;;;;;;;5.75;2.97;;;;;;;;;;5070549;28;20566;-74
2022/06/23 13:45:43;;;;;;;8.93;3.20;;;;;;;;;;5069435;28;20044;-74
2022/06/23 13:48:28;;;;;;;7.60;3.00;;;;;;;;;;5069289;28;20119;-74
2022/06/23 13:50:57;;;;;;;4.80;2.72;;;;;;;;;;5068989;28;20049;-74
2022/06/23 13:53:26;;;;;;;5.53;3.33;;;;;;;;;;5069734;28;20045;-74
2022/06/23 13:56:03;;;;;;;6.15;3.00;;;;;;;;;;5068832;28;20048;-75
2022/06/23 13:58:35;;;;;;;6.55;3.28;;;;;;;;;;5069148;28;20040;-75
2022/06/23 14:01:27;;;;;;;7.35;3.05;;;;;;;;;;5069296;28;20044;-75
2022/06/23 14:04:03;;;;;;;5.68;3.17;;;;;;;;;;5067205;28;20052;-74
2022/06/23 14:06:30;;;;;;;7.38;3.17;;;;;;;;;;5052662;28;20041;-75
2022/06/23 14:08:56;;;;;;;5.30;3.33;;;;;;;;;;5070272;28;20143;-75
2022/06/23 14:11:23;;;;;;;7.40;2.95;;;;;;;;;;5068856;28;20076;-75
2022/06/23 14:13:56;;;;;;;8.23;3.75;;;;;;;;;;5069086;28;20036;-75
2022/06/23 14:16:33;;;;;;;10.93;3.60;;;;;;;;;;5068996;28;20072;-74
2022/06/23 14:19:10;;;;;;;7.68;3.53;;;;;;;;;;5068742;28;20036;-75
2022/06/23 14:21:39;;;;;;;8.30;4.05;;;;;;;;;;5069066;28;20044;-75
2022/06/23 14:24:09;;;;;;;7.82;3.35;;;;;;;;;;5068843;28;20505;-75
2022/06/23 14:26:39;;;;;;;6.45;3.83;;;;;;;;;;5070776;28;20431;-75
2022/06/23 14:29:10;;;;;;;4.65;3.35;;;;;;;;;;5070044;28;20481;-75
2022/06/23 14:31:40;;;;;;;6.47;3.65;;;;;;;;;;5068783;28;20040;-75
2022/06/23 14:34:26;;;;;;;9.40;3.60;;;;;;;;;;5072517;28;20101;-75
2022/06/23 14:36:56;;;;;;;6.60;3.50;;;;;;;;;;5072050;28;20041;-74
2022/06/23 14:39:22;;;;;;;6.22;3.50;;;;;;;;;;5072997;28;20416;-74
2022/06/23 14:41:48;;;;;;;5.95;3.85;;;;;;;;;;5056162;28;20070;-75
2022/06/23 14:44:23;;;;;;;6.57;3.40;;;;;;;;;;5054913;28;20087;-74
2022/06/23 14:46:49;;;;;;;4.43;3.47;;;;;;;;;;5073461;28;20443;-74
2022/06/23 14:49:21;;;;;;;7.25;3.80;;;;;;;;;;5072673;28;20032;-74
2022/06/23 14:51:50;;;;;;;5.55;3.60;;;;;;;;;;5106169;28;20049;-74
2022/06/23 14:54:22;;;;;;;9.73;3.70;;;;;;;;;;5055337;28;20820;-74
2022/06/23 14:56:48;;;;;;;7.20;3.67;;;;;;;;;;5072013;28;20044;-74
2022/06/23 14:59:29;;;;;;;8.15;4.15;;;;;;;;;;5071525;28;20047;-74
2022/06/23 15:02:10;;;;;;;4.80;3.60;;;;;;;;;;5073433;28;20469;-74
2022/06/23 15:04:47;;;;;;;8.02;4.00;;;;;;;;;;5055795;28;20041;-75
2022/06/23 15:07:19;;;;;;;5.25;4.18;;;;;;;;;;5072106;28;20439;-75
2022/06/23 15:09:48;;;;;;;7.18;3.90;;;;;;;;;;5073124;28;20037;-75
2022/06/23 15:12:18;;;;;;;10.52;4.07;;;;;;;;;;5071737;28;20041;-75
2022/06/23 15:14:47;;;;;;;4.90;3.75;;;;;;;;;;5071463;28;20062;-74
2022/06/23 15:17:20;;;;;;;4.60;3.85;;;;;;;;;;5071535;28;20044;-74
2022/06/23 15:19:57;;;;;;;7.22;3.63;;;;;;;;;;5072111;28;20128;-74
2022/06/23 15:25:18;;;;;;;6.40;3.95;;;;;;;;;;5071684;28;20060;-74
2022/06/23 15:27:53;;;;;;;8.68;3.85;;;;;;;;;;5071898;28;20040;-74
2022/06/23 15:30:32;;;;;;;6.25;3.83;;;;;;;;;;5063735;28;20040;-74